Flight Track Log - Related Links

Times and Time Zones

All times are in EST time to prevent confusion due to time zone crossing. See the JST980 flight status page for this flight to view local times or setup timezone preferences in your user account.

Time Position Orientation Groundspeed Altitude Reporting Facility
EST Latitude Longitude Course Direction KTS MPH feet Rate Location/Type
Mon 05:49:03 AM -27.4175 153.1107 170° South 173 199 1,400  Level Aus ATC (RADAR)
Mon 05:49:33 AM -27.4444 153.1160 170° South 198 228 1,600 1,200 Climbing Aus ATC (RADAR)
Mon 05:50:08 AM -27.4769 153.1379 149° Southeast 231 266 2,700 1,886 Climbing Aus ATC (RADAR)
Mon 05:50:43 AM -27.5143 153.1485 166° South 243 280 3,800 2,215 Climbing Aus ATC (RADAR)
Mon 05:51:13 AM -27.5513 153.1370 195° South 271 312 5,100 3,046 Climbing Aus ATC (RADAR)
Mon 05:51:48 AM -27.5918 153.1209 199° South 265 305 7,100 2,200 Climbing Aus ATC (RADAR)
Mon 05:52:43 AM -27.6504 153.0769 214° Southwest 286 329 8,400 1,425 Climbing Aus ATC (RADAR)
Mon 05:53:08 AM -27.6802 153.0525 216° Southwest 311 358 9,000 2,073 Climbing Aus ATC (RADAR)
Mon 05:53:38 AM -27.7174 153.0224 216° Southwest 326 375 10,300 2,240 Climbing Aus ATC (RADAR)
Mon 05:54:23 AM -27.7749 152.9765 215° Southwest 339 390 11,800 2,025 Climbing Aus ATC (RADAR)
Mon 05:54:58 AM -27.8208 152.9396 215° Southwest 346 398 13,000 2,000 Climbing Aus ATC (RADAR)
Mon 05:55:32 AM -27.8672 152.9021 215° Southwest 351 404 14,100 1,826 Climbing Aus ATC (RADAR)
Mon 05:56:07 AM -27.9152 152.8634 215° Southwest 362 417 15,100 2,031 Climbing Aus ATC (RADAR)
Mon 05:56:37 AM -27.9566 152.8299 216° Southwest 366 421 16,300 1,976 Climbing Aus ATC (RADAR)
Mon 05:57:32 AM -28.0009 152.7381 241° Southwest 363 418 17,900 1,600 Climbing Aus ATC (RADAR)
Mon 05:57:52 AM -28.0147 152.7027 246° West 364 419 18,300 1,467 Climbing Aus ATC (RADAR)
Mon 05:58:17 AM -28.0320 152.6576 246° West 370 426 19,000 1,800 Climbing Aus ATC (RADAR)
Mon 05:58:52 AM -28.0563 152.5941 247° West 373 429 20,100 1,600 Climbing Aus ATC (RADAR)
Mon 05:59:32 AM -28.0831 152.5207 248° West 376 433 21,000 1,520 Climbing Aus ATC (RADAR)
Mon 06:00:07 AM -28.1053 152.4552 249° West 378 435 22,000 1,286 Climbing Aus ATC (RADAR)
Mon 06:00:42 AM -28.1276 152.3886 249° West 385 443 22,500 1,015 Climbing Aus ATC (RADAR)
Mon 06:01:12 AM -28.1470 152.3313 249° West 386 444 23,100 1,200 Climbing Aus ATC (RADAR)
Mon 06:01:47 AM -28.1698 152.2631 249° West 392 451 23,800 1,129 Climbing Aus ATC (RADAR)
Mon 06:02:37 AM -28.2030 152.1652 249° West 396 456 24,700 1,050 Climbing Aus ATC (RADAR)
Mon 06:03:07 AM -28.2232 152.1062 249° West 399 459 25,200 923 Climbing Aus ATC (RADAR)
Mon 06:03:42 AM -28.2467 152.0363 249° West 403 464 25,700 857 Climbing Aus ATC (RADAR)
Mon 06:04:17 AM -28.2705 151.9653 249° West 410 472 26,200 923 Climbing Aus ATC (RADAR)
Mon 06:04:47 AM -28.2910 151.9041 249° West 412 474 26,700 831 Climbing Aus ATC (RADAR)
Mon 06:05:22 AM -28.3150 151.8321 249° West 416 479 27,100 844 Climbing Aus ATC (RADAR)
Mon 06:05:51 AM -28.3360 151.7702 249° West 419 482 27,600 915 Climbing Aus ATC (RADAR)
Mon 06:06:21 AM -28.3564 151.7076 250° West 421 484 28,000 738 Climbing Aus ATC (RADAR)
Mon 06:06:56 AM -28.3811 151.6341 249° West 425 489 28,400 1,133 Climbing Aus ATC (RADAR)
Mon 06:07:51 AM -28.4199 151.5195 249° West 419 482 29,700 1,280 Climbing Aus ATC (RADAR)
Mon 06:08:11 AM -28.4336 151.4783 249° West 417 480 30,000 1,200 Climbing Aus ATC (RADAR)
Mon 06:08:36 AM -28.4506 151.4271 249° West 414 476 30,600 1,400 Climbing Aus ATC (RADAR)
Mon 06:09:11 AM -28.4739 151.3564 249° West 406 467 31,400 1,120 Climbing Aus ATC (RADAR)
Mon 06:09:51 AM -28.4996 151.2781 250° West 397 457 32,000 462 Climbing Aus ATC (RADAR)
Mon 06:10:16 AM -28.5158 151.2288 250° West 398 458 31,900 -109 Descending Aus ATC (RADAR)
Mon 06:10:46 AM -28.5354 151.1690 249° West 402 463 31,900  Level Aus ATC (RADAR)
Mon 06:11:26 AM -28.5617 151.0887 250° West 406 467 31,900  Level Aus ATC (RADAR)
Mon 06:11:51 AM -28.5782 151.0383 249° West 407 468 31,900  Level Aus ATC (RADAR)
Mon 06:12:26 AM -28.6011 150.9678 250° West 407 468 31,900  Level Aus ATC (RADAR)
Mon 06:13:06 AM -28.6273 150.8872 250° West 408 470 31,900  Level Aus ATC (RADAR)
Mon 06:13:31 AM -28.6438 150.8370 250° West 406 467 31,900  Level Aus ATC (RADAR)
Mon 06:14:01 AM -28.6640 150.7759 249° West 411 473 31,900  Level Aus ATC (RADAR)
Mon 06:14:46 AM -28.6934 150.6846 250° West 406 467 31,900  Level Aus ATC (RADAR)
Mon 06:15:06 AM -28.7069 150.6439 249° West 407 468 31,900  Level Aus ATC (RADAR)
Mon 06:15:41 AM -28.7300 150.5728 250° West 409 471 31,900  Level Aus ATC (RADAR)
Mon 06:16:20 AM -28.7559 150.4915 250° West 408 470 31,900  Level Aus ATC (RADAR)
Mon 06:16:45 AM -28.7724 150.4407 250° West 408 470 31,900  Level Aus ATC (RADAR)
Mon 06:17:20 AM -28.7955 150.3693 250° West 411 473 31,900  Level Aus ATC (RADAR)
Mon 06:18:15 AM -28.8312 150.2572 250° West 408 470 31,900 80 Level Aus ATC (RADAR)
Mon 06:18:35 AM -28.8441 150.2164 250° West 408 470 32,000 109 Climbing Aus ATC (RADAR)
Mon 06:19:10 AM -28.8668 150.1452 250° West 409 471 32,000 -75 Level Aus ATC (RADAR)
Mon 06:19:55 AM -28.8962 150.0532 250° West 410 472 31,900  Descending Aus ATC (RADAR)
Mon 06:20:30 AM -28.9189 149.9812 250° West 412 474 32,000 86 Climbing Aus ATC (RADAR)
Mon 06:21:05 AM -28.9417 149.9094 250° West 413 475 32,000  Level Aus ATC (RADAR)
Mon 06:21:45 AM -28.9676 149.8265 250° West 415 478 32,000  Level Aus ATC (RADAR)
Mon 06:22:20 AM -28.9906 149.7542 250° West 417 480 32,000  Level Aus ATC (RADAR)
Mon 06:23:10 AM -29.0233 149.6502 250° West 416 479 32,000  Level Aus ATC (RADAR)
Mon 06:23:30 AM -29.0363 149.6087 250° West 417 480 32,000  Level Aus ATC (RADAR)
Mon 06:23:55 AM -29.0526 149.5569 250° West 417 480 32,000  Level Aus ATC (RADAR)
Mon 06:24:30 AM -29.0758 149.4839 250° West 417 480 32,000  Level Aus ATC (RADAR)
Mon 06:25:10 AM -29.1015 149.4005 251° West 418 481 32,000  Level Aus ATC (RADAR)
Mon 06:25:40 AM -29.1211 149.3378 250° West 418 481 32,000  Level Aus ATC (RADAR)
Mon 06:26:14 AM -29.1439 149.2648 250° West 418 481 32,000  Level Aus ATC (RADAR)
Mon 06:26:54 AM -29.1699 149.1812 250° West 418 481 32,000 -80 Level Aus ATC (RADAR)
Mon 06:27:29 AM -29.1922 149.1084 251° West 417 480 31,900 -62 Descending Aus ATC (RADAR)
Mon 06:28:31 AM -29.2322 148.9793 250° West 409 471 31,900 71 Level Aus ATC (RADAR)
Mon 06:28:54 AM -29.2472 148.9296 251° West 421 484 32,000 109 Climbing Aus ATC (RADAR)
Mon 06:29:26 AM -29.2688 148.8629 250° West 413 475 32,000  Level Aus ATC (RADAR)
Mon 06:30:09 AM -29.2960 148.7717 251° West 421 484 32,000 -94 Level Aus ATC (RADAR)
Mon 06:30:30 AM -29.3104 148.7267 250° West 411 473 31,900 -107 Descending Aus ATC (RADAR)
Mon 06:31:05 AM -29.3332 148.6531 250° West 411 473 31,900  Level Aus ATC (RADAR)
Mon 06:31:44 AM -29.3576 148.5724 251° West 419 482 31,900  Level Aus ATC (RADAR)
Mon 06:32:15 AM -29.3776 148.5070 251° West 409 471 31,900  Level Aus ATC (RADAR)
Mon 06:32:50 AM -29.3992 148.4337 251° West 408 470 31,900  Level Aus ATC (RADAR)
Mon 06:33:40 AM -29.4313 148.3275 251° West 412 474 31,900 71 Level Aus ATC (RADAR)
Mon 06:34:15 AM -29.4542 148.2528 251° West 414 476 32,000 87 Climbing Aus ATC (RADAR)
Mon 06:34:49 AM -29.4772 148.1807 250° West 431 496 32,000  Level Aus ATC (RADAR)
Mon 06:35:30 AM -29.5029 148.0931 251° West 416 479 32,000  Level Aus ATC (RADAR)
Mon 06:36:03 AM -29.5241 148.0216 251° West 423 487 32,000 -92 Level Aus ATC (RADAR)
Mon 06:36:35 AM -29.5423 147.9555 252° West 412 474 31,900 -83 Descending Aus ATC (RADAR)
Mon 06:37:15 AM -29.5654 147.8717 252° West 409 471 31,900  Level Aus ATC (RADAR)
Mon 06:37:48 AM -29.5876 147.8006 250° West 416 479 31,900  Level Aus ATC (RADAR)
Mon 06:38:45 AM -29.6224 147.6820 251° West 410 472 31,900  Level Aus ATC (RADAR)
Mon 06:39:15 AM -29.6415 147.6184 251° West 412 474 31,900  Level Aus ATC (RADAR)
Mon 06:39:48 AM -29.6642 147.5464 250° West 423 487 31,900  Level Aus ATC (RADAR)
Mon 06:40:08 AM -29.6760 147.5041 252° West 423 487 31,900 20 Level Aus ATC (RADAR)
Mon 06:43:23 AM -29.7263 147.0630 257° West 28,000 20 Descending Aus ATC (Calculated)
Mon 06:44:24 AM -29.7374 146.9645 257° West 28,000 40 Level Aus ATC (Calculated)
Mon 06:45:34 AM -29.7579 146.7798 257° West 28,000 40 Level Aus ATC (Calculated)
Mon 06:46:44 AM -29.7756 146.6181 257° West 28,000 40 Level Aus ATC (Calculated)
Mon 06:47:00 AM -29.7924 146.6018 257° West  Level Estimated
Mon 06:47:59 AM -29.7909 146.4765 257° West 28,000  Level Aus ATC (Calculated)
Mon 06:48:00 AM -29.8060 146.4608 257° West  Level Estimated
Mon 06:49:00 AM -29.8152 146.3502 257° West  Level Estimated
Mon 06:49:14 AM -29.8108 146.2907 257° West 28,000  Level Aus ATC (Calculated)
Mon 06:50:24 AM -29.8321 146.0893 257° West 28,000 41 Level Aus ATC (Calculated)
Mon 06:51:38 AM -29.8479 145.9382 257° West 28,000 41 Level Aus ATC (Calculated)
Mon 06:52:00 AM -29.8699 145.8903 258° West  Level Estimated
Mon 06:52:53 AM -29.8596 145.8248 257° West 28,000  Level Aus ATC (Calculated)
Mon 06:53:00 AM -29.8801 145.7682 258° West  Level Estimated
Mon 06:54:00 AM -29.8858 145.6859 258° West  Level Estimated
Mon 06:54:08 AM -29.8769 145.6547 257° West 28,000  Level Aus ATC (Calculated)
Mon 06:55:23 AM -29.9034 145.4110 257° West 28,000 42 Level Aus ATC (Calculated)
Mon 06:56:38 AM -29.9220 145.2638 257° West 28,000 42 Level Aus ATC (Calculated)
Mon 06:57:53 AM -29.9404 145.1165 257° West 28,000 42 Level Aus ATC (Calculated)
Mon 06:58:00 AM -29.9536 145.0935 258° West  Level Estimated
Mon 06:59:00 AM -29.9661 144.9774 258° West  Level Estimated
Mon 06:59:08 AM -29.9586 144.9692 257° West 28,000  Level Aus ATC (Calculated)
Mon 07:00:23 AM -29.9767 144.8219 257° West 28,000 43 Level Aus ATC (Calculated)
Mon 07:01:00 AM -30.0014 144.7365 258° West  Level Estimated
Mon 07:01:38 AM -29.9946 144.6745 257° West 28,000  Level Aus ATC (Calculated)
Mon 07:02:00 AM -30.0137 144.6195 258° West  Level Estimated
Mon 07:02:52 AM -30.0123 144.5270 258° West 28,000  Level Aus ATC (Calculated)
Mon 07:03:00 AM -30.0258 144.5034 258° West  Level Estimated
Mon 07:04:00 AM -30.0381 144.3851 258° West  Level Estimated
Mon 07:04:07 AM -30.0299 144.3795 258° West 28,000  Level Aus ATC (Calculated)
Mon 07:05:22 AM -30.0473 144.2320 258° West 28,000 44 Level Aus ATC (Calculated)
Mon 07:06:37 AM -30.0731 144.0105 258° West 28,000 44 Level Aus ATC (Calculated)
Mon 07:07:57 AM -30.0901 143.8629 258° West 28,000 45 Level Aus ATC (Calculated)
Mon 07:08:00 AM -30.1040 143.8370 258° West  Level Estimated
Mon 07:09:00 AM -30.1135 143.7311 258° West  Level Estimated
Mon 07:09:17 AM -30.1069 143.7151 258° West 28,000  Level Aus ATC (Calculated)
Mon 07:10:37 AM -30.1236 143.5673 258° West 28,000 45 Level Aus ATC (Calculated)
Mon 07:11:57 AM -30.1483 143.3456 258° West 28,000 46 Level Aus ATC (Calculated)
Mon 07:12:00 AM -30.1541 143.3936 258° West  Level Estimated
Mon 07:13:00 AM -30.1713 143.2137 259° West  Level Estimated
Mon 07:14:00 AM -30.1931 143.0880 259° West  Level Estimated
Mon 07:14:06 AM -30.1726 143.1237 258° West 28,000  Level Aus ATC (Calculated)
Mon 07:14:11 AM -30.1726 143.1237 258° West 28,000 47 Level Aus ATC (Calculated)
Mon 07:15:21 AM -30.1848 143.0113 258° West 28,000 47 Level Aus ATC (Calculated)
Mon 07:16:00 AM -30.2121 142.8953 259° West  Level Estimated
Mon 07:17:00 AM -30.2205 142.8039 259° West  Level Estimated
Mon 07:17:26 AM -30.2207 142.6741 258° West 28,000  Level Aus ATC (Calculated)
Mon 07:18:46 AM -30.2324 142.5616 258° West 28,000 48 Level Aus ATC (Calculated)
Mon 07:19:00 AM -30.2543 142.4770 259° West  Level Estimated
Mon 07:20:00 AM -30.2588 142.4064 259° West  Level Estimated
Mon 07:20:06 AM -30.2557 142.3367 258° West 28,000  Level Aus ATC (Calculated)
Mon 07:21:26 AM -30.2672 142.2241 258° West 28,000 48 Level Aus ATC (Calculated)
Mon 07:22:36 AM -30.2786 142.1115 258° West 28,000 49 Level Aus ATC (Calculated)
Mon 07:23:55 AM -30.3011 141.8863 258° West 28,000 49 Level Aus ATC (Calculated)
Mon 07:24:00 AM -30.3080 141.9358 259° West  Level Estimated
Mon 07:25:00 AM -30.3238 141.7498 259° West  Level Estimated
Mon 07:25:15 AM -30.3122 141.7737 258° West 28,000  Level Aus ATC (Calculated)
Mon 07:26:00 AM -30.3446 141.6237 259° West  Level Estimated
Mon 07:26:30 AM -30.3232 141.6610 258° West 28,000  Level Aus ATC (Calculated)
Mon 07:27:00 AM -30.3486 141.5531 259° West  Level Estimated
Mon 07:27:45 AM -30.3449 141.4356 258° West 28,000  Level Aus ATC (Calculated)
Mon 07:28:00 AM -30.3543 141.4719 259° West  Level Estimated
Mon 07:28:30 AM -30.3449 141.4356 258° West 28,000  Level Aus ATC (Calculated)
Mon 07:29:00 AM -30.3707 141.2780 259° West  Level Estimated
Mon 07:29:45 AM -30.3642 141.2331 258° West 28,000  Level Aus ATC (Calculated)
Mon 07:30:00 AM -30.3758 141.2464 259° West  Level Estimated
Mon 07:31:00 AM -30.3899 141.0753 259° West  Level Estimated
Mon 07:31:00 AM -30.3812 141.0534 259° West 28,000  Level Aus ATC (Calculated)
Mon 07:32:00 AM -30.4016 140.9272 259° West  Level Estimated
Mon 07:32:15 AM -30.3980 140.8737 259° West 28,000  Level Aus ATC (Calculated)
Mon 07:33:29 AM -30.4145 140.6939 259° West 28,000 52 Level Aus ATC (Calculated)
Mon 07:34:44 AM -30.4227 140.6040 259° West 28,000 53 Level Aus ATC (Calculated)
Mon 07:35:00 AM -30.4451 140.5023 259° West  Level Estimated
Mon 07:36:00 AM -30.4482 140.4440 259° West  Level Estimated
Mon 07:36:04 AM -30.4389 140.4242 259° West 28,000  Level Aus ATC (Calculated)
Mon 07:37:24 AM -30.4548 140.2442 259° West 28,000 53 Level Aus ATC (Calculated)
Mon 07:38:39 AM -30.4704 140.0643 259° West 28,000 54 Level Aus ATC (Calculated)
Mon 07:39:00 AM -30.4866 140.0419 260° West  Level Estimated
Mon 07:39:54 AM -30.4859 139.8842 259° West 28,000  Level Aus ATC (Calculated)
Mon 07:40:00 AM -30.4972 139.8935 260° West  Level Estimated
Mon 07:41:00 AM -30.5075 139.7450 260° West  Level Estimated
Mon 07:41:09 AM -30.5010 139.7041 259° West 28,000  Level Aus ATC (Calculated)
Mon 07:42:00 AM -30.5271 139.6184 260° West  Level Estimated
Mon 07:42:29 AM -30.5160 139.5240 259° West 28,000  Level Aus ATC (Calculated)
Mon 07:43:00 AM -30.5372 139.4699 260° West  Level Estimated
Mon 07:43:48 AM -30.5306 139.3438 259° West 28,000  Level Aus ATC (Calculated)
Mon 07:44:00 AM -30.5455 139.3319 260° West  Level Estimated
Mon 07:45:00 AM -30.5539 139.1918 260° West  Level Estimated
Mon 07:45:03 AM -30.5379 139.2536 259° West 28,000  Level Aus ATC (Calculated)
Mon 07:46:18 AM -30.5522 139.0733 259° West 28,000 57 Level Aus ATC (Calculated)
Mon 07:47:33 AM -30.5662 138.8930 259° West 28,000 57 Level Aus ATC (Calculated)
Mon 07:48:48 AM -30.5800 138.7126 259° West 28,000 58 Level Aus ATC (Calculated)
Mon 07:49:00 AM -30.5939 138.7092 260° West  Level Estimated
Mon 07:50:00 AM -30.6028 138.5605 260° West  Level Estimated
Mon 07:50:08 AM -30.5936 138.5322 259° West 28,000  Level Aus ATC (Calculated)
Mon 07:51:08 AM -30.6003 138.4419 259° West 30,000 59 Climbing Aus ATC (Calculated)
Mon 07:53:00 AM -30.6354 138.2051 260° West  Level Estimated
Mon 07:54:00 AM -30.6540 138.0782 260° West  Level Estimated
Mon 07:54:03 AM -30.7007 138.0217 259° West 30,000  Level Aus ATC (Calculated)
Mon 07:55:00 AM -30.6725 137.9512 260° West  Level Estimated
Mon 07:56:00 AM -30.7361 137.7738 260° West  Level Estimated
Mon 07:56:02 AM -30.7603 137.7691 260° West 30,000  Level Aus ATC (Calculated)
Mon 07:58:00 AM -30.7953 137.5188 261° West  Level Estimated
Mon 07:59:00 AM -30.8129 137.3915 261° West  Level Estimated
Mon 08:00:00 AM -30.8304 137.2641 261° West  Level Estimated
Mon 08:01:00 AM -30.8477 137.1366 261° West  Level Estimated
Mon 08:01:02 AM -30.8974 137.1786 260° West 30,000  Level Aus ATC (Calculated)
Mon 08:03:00 AM -30.9307 136.9276 261° West  Level Estimated
Mon 08:04:00 AM -30.9474 136.7999 261° West  Level Estimated
Mon 08:05:00 AM -30.9640 136.6722 261° West  Level Estimated
Mon 08:06:00 AM -30.9804 136.5444 261° West  Level Estimated
Mon 08:06:01 AM -31.0509 136.5017 261° West 30,000  Level Aus ATC (Calculated)
Mon 08:07:00 AM -30.9967 136.4166 261° West  Level Estimated
Mon 08:08:00 AM -31.0823 136.2478 262° West  Level Estimated
Mon 08:09:00 AM -31.0979 136.1197 262° West  Level Estimated
Mon 08:10:00 AM -31.1135 135.9916 262° West  Level Estimated
Mon 08:11:00 AM -31.1289 135.8635 262° West  Level Estimated
Mon 08:11:01 AM -31.2008 135.8227 261° West 30,000  Level Aus ATC (Calculated)
Mon 08:11:46 AM -31.2193 135.7377 261° West 30,000 52 Level Aus ATC (Calculated)
Mon 08:13:00 AM -31.2373 135.5798 262° West  Level Estimated
Mon 08:14:00 AM -31.2518 135.4518 262° West  Level Estimated
Mon 08:14:41 AM -31.2642 135.4214 262° West 34,000  Level Aus ATC (Calculated)
Mon 08:15:44 AM -31.2864 135.2632 262° West 34,000 19 Level Aus ATC (Calculated)
Mon 08:16:30 AM -31.2974 135.1841 262° West 34,000 19 Level Aus ATC (Calculated)
Mon 08:18:00 AM -31.3184 134.9911 263° West  Level Estimated
Mon 08:18:41 AM -31.3410 134.8674 262° West 34,000  Level Aus ATC (Calculated)
Mon 08:19:00 AM -31.3322 134.8624 263° West  Level Estimated
Mon 08:20:00 AM -31.3589 134.6978 263° West  Level Estimated
Mon 08:21:00 AM -31.3724 134.5690 263° West  Level Estimated
Mon 08:21:25 AM -31.3838 134.5503 262° West 34,000  Level Aus ATC (Calculated)
Mon 08:22:00 AM -31.3857 134.4402 263° West  Level Estimated
Mon 08:23:00 AM -31.4047 134.3463 263° West  Level Estimated
Mon 08:24:00 AM -31.4177 134.2174 263° West  Level Estimated
Mon 08:25:00 AM -31.4307 134.0884 263° West  Level Estimated
Mon 08:26:00 AM -31.4435 133.9595 263° West  Level Estimated
Mon 08:26:24 AM -31.4772 133.8360 262° West 34,000  Level Aus ATC (Calculated)
Mon 08:28:00 AM -31.4970 133.6294 264° West  Level Estimated
Mon 08:29:00 AM -31.5091 133.5003 264° West  Level Estimated
Mon 08:30:00 AM -31.5212 133.3711 264° West  Level Estimated
Mon 08:31:00 AM -31.5331 133.2419 264° West  Level Estimated
Mon 08:31:24 AM -31.5569 133.1999 263° West 34,000  Level Aus ATC (Calculated)
Mon 08:33:00 AM -31.5754 132.9930 264° West  Level Estimated
Mon 08:34:00 AM -31.5868 132.8636 264° West  Level Estimated
Mon 08:35:00 AM -31.5981 132.7342 264° West  Level Estimated
Mon 08:36:00 AM -31.6092 132.6048 264° West  Level Estimated
Mon 08:36:23 AM -31.6335 132.5627 263° West 34,000  Level Aus ATC (Calculated)
Mon 08:37:00 AM -31.6202 132.4753 264° West  Level Estimated
Mon 08:38:00 AM -31.6509 132.3526 264° West  Level Estimated
Mon 08:39:00 AM -31.6616 132.2226 264° West  Level Estimated
Mon 08:40:00 AM -31.6721 132.0926 265° West  Level Estimated
Mon 08:41:00 AM -31.6824 131.9625 265° West  Level Estimated
Mon 08:41:23 AM -31.7068 131.9245 264° West 34,000  Level Aus ATC (Calculated)
Mon 08:43:00 AM -31.7230 131.7141 265° West  Level Estimated
Mon 08:44:00 AM -31.7328 131.5839 265° West  Level Estimated
Mon 08:45:00 AM -31.7425 131.4537 265° West  Level Estimated
Mon 08:46:00 AM -31.7520 131.3235 265° West  Level Estimated
Mon 08:46:55 AM -31.7856 131.2054 264° West 34,000  Level Aus ATC (Calculated)
Mon 08:48:00 AM -31.7954 131.0642 265° West  Level Estimated
Mon 08:49:00 AM -31.8044 130.9338 265° West  Level Estimated
Mon 08:50:00 AM -31.8132 130.8034 265° West  Level Estimated
Mon 08:51:00 AM -31.8218 130.6730 265° West  Level Estimated
Mon 08:51:22 AM -31.8522 130.5652 264° West 34,000  Level Aus ATC (Calculated)
Mon 08:52:00 AM -31.8304 130.5425 266° West  Level Estimated
Mon 08:53:00 AM -31.8656 130.3520 266° West  Level Estimated
Mon 08:54:00 AM -31.8736 130.2214 266° West  Level Estimated
Mon 08:55:00 AM -31.8814 130.0909 266° West  Level Estimated
Mon 08:56:00 AM -31.8892 129.9602 266° West  Level Estimated
Mon 08:56:21 AM -31.9156 129.9241 265° West 34,000  Level Aus ATC (Calculated)
Mon 08:58:00 AM -31.9276 129.7084 266° West  Level Estimated
Mon 08:59:00 AM -31.9346 129.5811 266° West  Level Estimated
Mon 09:00:00 AM -31.9414 129.4539 266° West  Level Estimated
Mon 09:01:00 AM -31.9481 129.3265 266° West  Level Estimated
Mon 09:01:39 AM -31.9830 129.2018 265° West 34,000  Level Aus ATC (Calculated)
Mon 09:03:00 AM -31.9916 129.0251 267° West  Level Estimated
Mon 09:04:00 AM -31.9977 128.8943 267° West  Level Estimated
Mon 09:05:00 AM -32.0037 128.7634 267° West  Level Estimated
Mon 09:06:00 AM -32.0096 128.6324 267° West  Level Estimated
Mon 09:06:21 AM -32.0327 128.6393 266° West 34,000  Level Aus ATC (Calculated)
Mon 09:07:00 AM -32.0153 128.5015 267° West  Level Estimated
Mon 09:08:00 AM -32.0417 128.4232 267° West  Level Estimated
Mon 09:09:00 AM -32.0470 128.2922 267° West  Level Estimated
Mon 09:10:00 AM -32.0521 128.1612 267° West  Level Estimated
Mon 09:11:00 AM -32.0572 128.0302 267° West  Level Estimated
Mon 09:11:20 AM -32.0864 127.9958 266° West 34,000  Level Aus ATC (Calculated)
Mon 09:12:00 AM -32.0620 127.8991 267° West  Level Estimated
Mon 09:12:22 AM -32.0993 127.8348 266° West 34,000  Level Aus ATC (Calculated)
Mon 09:13:00 AM -32.0939 127.7773 268° West  Level Estimated
Mon 09:14:00 AM -32.1062 127.6206 268° West  Level Estimated
Mon 09:15:00 AM -32.1103 127.4894 268° West  Level Estimated
Mon 09:16:00 AM -32.1143 127.3583 268° West  Level Estimated
Mon 09:16:20 AM -32.1429 127.2709 267° West 34,000  Level Aus ATC (Calculated)
Mon 09:18:00 AM -32.1487 127.0437 268° West  Level Estimated
Mon 09:19:00 AM -32.1520 126.9074 268° West  Level Estimated
Mon 09:19:57 AM -32.1782 126.7872 267° West 34,000  Level Aus ATC (Calculated)
Mon 09:20:00 AM -32.1552 126.7711 268° West  Level Estimated
Mon 09:21:00 AM -32.1811 126.6440 269° West  Level Estimated
Mon 09:21:19 AM -32.1896 126.6259 267° West 34,000  Level Aus ATC (Calculated)
Mon 09:23:00 AM -32.1937 126.3963 269° West  Level Estimated
Mon 09:24:00 AM -32.1959 126.2598 269° West  Level Estimated
Mon 09:25:00 AM -32.1980 126.1234 269° West  Level Estimated
Mon 09:26:00 AM -32.1999 125.9870 269° West  Level Estimated
Mon 09:26:58 AM -32.2383 125.8994 268° West 34,000  Level Aus ATC (Calculated)
Mon 09:27:00 AM -32.2017 125.8506 269° West  Level Estimated
Mon 09:28:00 AM -32.2395 125.7584 269° West  Level Estimated
Mon 09:28:16 AM -32.2485 125.7379 268° West 34,000  Level Aus ATC (Calculated)
Mon 09:28:47 AM -32.2536 125.6571 268° West 34,000 53 Level Aus ATC (Calculated)
Mon 09:30:00 AM -32.2545 125.4910 270° West  Level Estimated
Mon 09:30:43 AM -32.2630 125.3800 268° West 34,000  Level Aus ATC (Calculated)
Mon 09:31:00 AM -32.2550 125.3545 270° West  Level Estimated
Mon 09:32:00 AM -32.2634 125.2047 270° West  Level Estimated
Mon 09:32:44 AM -32.2616 125.1488 268° West 34,000  Level Aus ATC (Calculated)
Mon 09:33:00 AM -32.2635 125.0682 270° West  Level Estimated
Mon 09:34:00 AM -32.2617 124.9759 270° West  Level Estimated
Mon 09:35:00 AM -32.2616 124.8393 270° West  Level Estimated
Mon 09:35:43 AM -32.2576 124.6865 268° West 34,000  Level Aus ATC (Calculated)
Mon 09:37:00 AM -32.2571 124.5113 270° West  Level Estimated
Mon 09:38:00 AM -32.2566 124.3748 270° West  Level Estimated
Mon 09:39:00 AM -32.2559 124.2383 270° West  Level Estimated
Mon 09:40:00 AM -32.2551 124.1017 270° West  Level Estimated
Mon 09:40:42 AM -32.2502 124.1088 268° West 34,000  Level Aus ATC (Calculated)
Mon 09:41:00 AM -32.2541 123.9652 270° West  Level Estimated
Mon 09:42:00 AM -32.2491 123.9313 270° West  Level Estimated
Mon 09:43:00 AM -32.2480 123.7948 270° West  Level Estimated
Mon 09:44:00 AM -32.2468 123.6583 271° West  Level Estimated
Mon 09:45:00 AM -32.2454 123.5218 271° West  Level Estimated
Mon 09:45:42 AM -32.2379 123.4156 268° West 34,000  Level Aus ATC (Calculated)
Mon 09:46:00 AM -32.2439 123.3853 271° West  Level Estimated
Mon 09:46:32 AM -32.2355 123.3001 268° West 34,000  Level Aus ATC (Calculated)
Mon 09:47:00 AM -32.2359 123.2381 271° West  Level Estimated
Mon 09:48:00 AM -32.2331 123.0999 271° West  Level Estimated
Mon 09:49:00 AM -32.2313 122.9634 271° West  Level Estimated
Mon 09:50:00 AM -32.2293 122.8269 271° West  Level Estimated
Mon 09:50:41 AM -32.2218 122.7226 268° West 34,000  Level Aus ATC (Calculated)
Mon 09:51:00 AM -32.2271 122.6905 271° West  Level Estimated
Mon 09:52:00 AM -32.2190 122.5429 271° West  Level Estimated
Mon 09:53:00 AM -32.2167 122.4065 271° West  Level Estimated
Mon 09:54:00 AM -32.2142 122.2701 271° West  Level Estimated
Mon 09:55:00 AM -32.2116 122.1336 271° West  Level Estimated
Mon 09:55:16 AM -32.2055 122.1453 267° West 34,000  Level Aus ATC (Calculated)
Mon 09:56:53 AM -32.1983 121.9145 266° West 34,000 170 Level Aus ATC (Calculated)
Mon 09:58:00 AM -32.1951 121.7622 271° West  Level Estimated
Mon 09:58:40 AM -32.2001 121.6994 266° West 34,000  Level Aus ATC (Calculated)
Mon 09:59:00 AM -32.1922 121.6258 271° West  Level Estimated
Mon 09:59:56 AM -32.2057 121.5998 266° West 34,000  Level Aus ATC (Calculated)
Mon 10:00:00 AM -32.1959 121.5176 272° West  Level Estimated
Mon 10:01:00 AM -32.2020 121.4543 272° West  Level Estimated
Mon 10:02:00 AM -32.1984 121.3179 272° West  Level Estimated
Mon 10:03:00 AM -32.1946 121.1816 272° West  Level Estimated
Mon 10:03:10 AM -32.2325 121.1015 266° West 34,000  Level Aus ATC (Calculated)
Mon 10:03:55 AM -32.2377 121.0018 266° West 34,000 468 Level Aus ATC (Calculated)
Mon 10:05:00 AM -32.2318 120.8540 273° West  Level Estimated
Mon 10:06:00 AM -32.2262 120.7177 273° West  Level Estimated
Mon 10:07:00 AM -32.2205 120.5814 273° West  Level Estimated
Mon 10:07:39 AM -32.2800 120.1265 273° West 407 468 36,100  Level Aus ATC (RADAR)
Mon 10:08:39 AM -32.2783 119.9927 271° West 402 463 36,100  Level Aus ATC (RADAR)
Mon 10:09:44 AM -32.2857 119.8463 267° West 405 466 36,100  Level Aus ATC (RADAR)
Mon 10:10:49 AM -32.2926 119.7002 267° West 404 465 36,100  Level Aus ATC (RADAR)
Mon 10:11:49 AM -32.2967 119.5659 268° West 403 464 36,100 -63 Level Aus ATC (RADAR)
Mon 10:12:25 AM -32.3058 119.4850 268° West 410 472 36,000 92 Descending FlightAware ADS-B
Mon 10:12:54 AM -32.3015 119.4209 268° West 400 460 36,200  Climbing Aus ATC (RADAR)
Mon 10:13:08 AM -32.3095 119.3883 267° West 409 471 36,000 -273 Descending FlightAware ADS-B
Mon 10:13:38 AM -32.3121 119.3208 267° West 409 471 36,000  Level FlightAware ADS-B
Mon 10:14:10 AM -32.3148 119.2505 267° West 409 471 36,000  Level FlightAware ADS-B
Mon 10:14:40 AM -32.3172 119.1833 268° West 409 471 36,000  Level FlightAware ADS-B
Mon 10:15:11 AM -32.3197 119.1148 267° West 410 472 36,000  Level FlightAware ADS-B
Mon 10:15:41 AM -32.3221 119.0481 268° West 410 472 36,000  Level FlightAware ADS-B
Mon 10:16:12 AM -32.3245 118.9780 268° West 407 468 36,000  Level FlightAware ADS-B
Mon 10:16:42 AM -32.3267 118.9127 268° West 395 455 36,000  Level FlightAware ADS-B
Mon 10:17:13 AM -32.3289 118.8466 268° West 384 442 36,000  Level FlightAware ADS-B
Mon 10:17:52 AM -32.3316 118.7653 268° West 381 438 36,000  Level FlightAware ADS-B
Mon 10:18:24 AM -32.3338 118.6988 268° West 383 441 36,000  Level FlightAware ADS-B
Mon 10:18:54 AM -32.3360 118.6363 268° West 384 442 36,000  Level FlightAware ADS-B
Mon 10:19:25 AM -32.3382 118.5713 268° West 386 444 36,000  Level FlightAware ADS-B
Mon 10:19:55 AM -32.3401 118.5099 268° West 387 445 36,000  Level FlightAware ADS-B
Mon 10:20:26 AM -32.3423 118.4424 268° West 388 447 36,000  Level FlightAware ADS-B
Mon 10:20:56 AM -32.3442 118.3781 268° West 390 449 36,000  Level FlightAware ADS-B
Mon 10:21:27 AM -32.3462 118.3128 268° West 391 450 36,000  Level FlightAware ADS-B
Mon 10:22:07 AM -32.3487 118.2275 268° West 392 451 36,000  Level FlightAware ADS-B
Mon 10:22:37 AM -32.3505 118.1622 268° West 393 452 36,000  Level FlightAware ADS-B
Mon 10:23:07 AM -32.3523 118.0975 268° West 389 448 36,000 -774 Level FlightAware ADS-B
Mon 10:23:39 AM -32.3540 118.0334 268° West 385 443 35,200 -1,562 Descending FlightAware ADS-B
Mon 10:24:20 AM -32.3563 117.9474 268° West 375 432 34,100 -1,521 Descending FlightAware ADS-B
Mon 10:24:50 AM -32.3580 117.8862 268° West 365 420 33,400 -1,770 Descending FlightAware ADS-B
Mon 10:25:21 AM -32.3596 117.8242 268° West 363 418 32,300 -1,765 Descending FlightAware ADS-B
Mon 10:25:58 AM -32.3600 117.7529 268° West 347 399 31,400 -1,500 Descending Aus ATC (RADAR)
Mon 10:26:01 AM -32.3616 117.7462 268° West 355 409 31,300 -1,818 Descending FlightAware ADS-B
Mon 10:26:31 AM -32.3622 117.6872 269° West 350 403 30,400 -1,672 Descending FlightAware ADS-B
Mon 10:27:02 AM -32.3565 117.6307 277° West 345 397 29,600 -1,645 Descending FlightAware ADS-B
Mon 10:27:33 AM -32.3440 117.5743 285° West 342 394 28,700 -1,662 Descending FlightAware ADS-B
Mon 10:28:07 AM -32.3274 117.5133 285° West 326 375 27,800 -1,692 Descending Aus ATC (RADAR)
Mon 10:28:12 AM -32.3272 117.5043 285° West 335 386 27,600 -1,946 Descending FlightAware ADS-B
Mon 10:28:44 AM -32.3140 117.4490 286° West 333 383 26,600 -1,645 Descending FlightAware ADS-B
Mon 10:29:14 AM -32.3012 117.3958 286° West 327 376 25,900 -1,574 Descending FlightAware ADS-B
Mon 10:29:45 AM -32.2884 117.3432 286° West 323 372 25,000 -1,475 Descending FlightAware ADS-B
Mon 10:30:15 AM -32.2764 117.2930 286° West 316 364 24,400 -1,437 Descending FlightAware ADS-B
Mon 10:30:56 AM -32.2601 117.2256 286° West 310 357 23,300 -1,583 Descending FlightAware ADS-B
Mon 10:31:27 AM -32.2478 117.1755 286° West 308 354 22,500 -1,574 Descending FlightAware ADS-B
Mon 10:31:57 AM -32.2360 117.1269 286° West 305 351 21,700 -1,574 Descending FlightAware ADS-B
Mon 10:32:28 AM -32.2240 117.0779 286° West 301 346 20,900 -1,574 Descending FlightAware ADS-B
Mon 10:32:58 AM -32.2127 117.0314 286° West 297 342 20,100 -1,574 Descending FlightAware ADS-B
Mon 10:33:29 AM -32.2007 116.9828 286° West 297 342 19,300 -1,606 Descending FlightAware ADS-B
Mon 10:34:09 AM -32.1854 116.9206 286° West 296 341 18,200 -1,800 Descending FlightAware ADS-B
Mon 10:34:29 AM -32.1742 116.8905 294° West 295 339 17,500 -1,920 Descending FlightAware ADS-B
Mon 10:34:59 AM -32.1485 116.8511 308° West 298 343 16,600 -1,645 Descending FlightAware ADS-B
Mon 10:35:31 AM -32.1217 116.8111 308° West 293 337 15,800 -1,524 Descending FlightAware ADS-B
Mon 10:36:02 AM -32.0954 116.7717 308° West 294 338 15,000 -1,475 Descending FlightAware ADS-B
Mon 10:36:32 AM -32.0703 116.7340 308° West 290 334 14,300 -1,629 Descending FlightAware ADS-B
Mon 10:37:12 AM -32.0375 116.6845 308° West 289 333 13,100 -1,859 Descending FlightAware ADS-B
Mon 10:37:43 AM -32.0114 116.6453 308° West 294 338 12,100 -1,742 Descending FlightAware ADS-B
Mon 10:38:14 AM -31.9857 116.6068 308° West 291 335 11,300 -1,619 Descending FlightAware ADS-B
Mon 10:38:46 AM -31.9590 116.5667 308° West 294 338 10,400 -1,615 Descending FlightAware ADS-B
Mon 10:39:06 AM -31.9428 116.5412 307° West 292 336 9,900 -1,200 Descending FlightAware ADS-B
Mon 10:39:26 AM -31.9291 116.5143 301° West 283 326 9,600 -878 Descending FlightAware ADS-B
Mon 10:39:47 AM -31.9152 116.4869 301° West 265 305 9,300 -878 Descending FlightAware ADS-B
Mon 10:40:07 AM -31.9024 116.4619 301° West 259 298 9,000 -1,200 Descending FlightAware ADS-B
Mon 10:40:27 AM -31.8899 116.4378 301° West 257 296 8,500 -1,463 Descending FlightAware ADS-B
Mon 10:40:48 AM -31.8767 116.4121 301° West 258 297 8,000 -1,395 Descending FlightAware ADS-B
Mon 10:41:10 AM -31.8634 116.3860 301° West 259 298 7,500 -1,350 Descending FlightAware ADS-B
Mon 10:41:28 AM -31.8520 116.3638 301° West 259 298 7,100 -1,350 Descending FlightAware ADS-B
Mon 10:41:50 AM -31.8382 116.3368 301° West 259 298 6,600 -1,500 Descending FlightAware ADS-B
Mon 10:42:12 AM -31.8245 116.3101 301° West 260 299 6,000 -1,286 Descending FlightAware ADS-B
Mon 10:42:32 AM -31.8119 116.2856 301° West 257 296 5,700 -750 Descending FlightAware ADS-B
Mon 10:42:52 AM -31.7998 116.2621 301° West 250 288 5,500 -732 Descending FlightAware ADS-B
Mon 10:43:13 AM -31.7895 116.2361 295° West 243 280 5,200 -900 Descending FlightAware ADS-B
Mon 10:43:32 AM -31.7840 116.2120 285° West 236 272 4,900 -837 Descending FlightAware ADS-B
Mon 10:43:56 AM -31.7775 116.1833 285° West 229 264 4,600 -706 Descending FlightAware ADS-B
Mon 10:44:23 AM -31.7697 116.1502 286° West 229 264 4,300 -706 Descending FlightAware ADS-B
Mon 10:44:47 AM -31.7630 116.1212 285° West 234 269 4,000 -766 Descending FlightAware ADS-B
Mon 10:45:10 AM -31.7564 116.0925 285° West 234 269 3,700 -500 Descending FlightAware ADS-B
Mon 10:45:35 AM -31.7612 116.0653 258° West 200 230 3,600 -158 Descending FlightAware ADS-B
Mon 10:45:48 AM -31.7688 116.0546 230° Southwest 192 221 3,600 -563 Level FlightAware ADS-B
Mon 10:46:07 AM -31.7801 116.0401 228° Southwest 185 213 3,300 -1,000 Descending FlightAware ADS-B
Mon 10:46:48 AM -31.8023 116.0079 231° Southwest 167 192 2,600 -1,080 Descending FlightAware ADS-B
Mon 10:46:57 AM -31.8087 116.0038 209° Southwest 156 180 2,400 -759 Descending FlightAware ADS-B
Mon 10:48:15 AM -31.8577 115.9892 209° Southwest 132 152 1,500 -713 Descending Aus ATC (RADAR)
Mon 10:49:20 AM -31.8983 115.9775 194° South 141 162 700 -738 Descending Aus ATC (RADAR)

Login

Don't have an account? Register now (free) for customized features, flight alerts, and more!